Terminal Aerodrome Forecast
Issued by NWS Raleigh/Durham, NC

Current Version | Previous Version | Text Only | Print | Product List | Glossary On
Versions: 1 2 3 4 5 6 7 8 9 10 11 12 13 14 15 16 17 18 19 20 21 22 23 24 25 26 27 28 29 30 31 32 33 34
000 FTUS42 KRAH 310538 TAFFAY TAF KFAY 310538Z 3106/0106 00000KT P6SM BKN250 FM310800 00000KT 6SM BR FEW005 SCT010 TEMPO 3109/3112 2SM BR BKN005 FM311300 20007KT P6SM SCT040 SCT250=

USA.gov is the U.S. government's official web portal to all federal, state and local government web resources and services.